Terminal Aerodrome Forecast
Issued by NWS

Home | Current Version | Previous Version | Text Only | Print | Product List | Glossary On
Versions: 1 2 3 4 5 6 7 8 9 10 11 12 13 14 15 16 17 18 19 20 21 22 23 24 25 26 27 28 29 30 31 32 33 34 35 36 37 38 39 40 41 42 43 44 45 46 47 48
000
FTAK31 PAFA 061827 AAA
TAFAOM
TAF AMD
PAOM 061827Z 0618/0718 08018KT 1/2SM SN BLSN VV012
     FM070000 15020G30KT 1/2SM -SN BLSN VV008
     FM070600 20015KT 1/2SM -SN BLSN VV008
     FM071200 24010KT 1SM -SN OVC010
     FM071400 24010KT 5SM -SN OVC015=

USA.gov is the U.S. government's official web portal to all federal, state and local government web resources and services.